Terminal Aerodrome Forecast
Issued by NWS Cleveland, OH

Home | Current Version | Previous Version | Graphics & Text | Print | Product List | Glossary On
Versions: 1 2 3 4 5 6 7 8 9 10 11 12 13 14 15 16 17 18 19 20 21 22 23 24 25 26 27 28 29 30 31
000
FTUS41 KCLE 292300
TAFCLE
TAF
KCLE 292320Z 3000/3106 29015G25KT 3SM -SN BR OVC007
     FM300500 29015KT 4SM -SN OVC015
     FM300600 30015G22KT P6SM OVC015
     FM301200 32016G23KT 4SM -SN OVC015
     FM301700 32016G23KT P6SM OVC025
     FM302100 32014G21KT P6SM OVC050
     FM302200 32011KT P6SM BKN250
     FM310000 VRB03KT P6SM BKN250=

USA.gov is the U.S. government's official web portal to all federal, state and local government web resources and services.